• Join FlightAware (Why Join?)
  • Login
  • US Flag 
02:32AM EDT


 

Airport Tracker/Info


-or-


 

Live Flight TrackerFlight Track Log ✈ EJA922 ✈ 12-Aug-2013 ✈ KEDC - KIAH

Flight Track Log - Related Links

Times and Time Zones

All times are in EDT time to prevent confusion due to time zone crossing. See the EJA922 flight status page for this flight to view local times or setup timezone preferences in your user account.

Time Position Orientation Groundspeed Altitude Reporting Facility
EDT Latitude Longitude Course Direction KTS MPH feet Rate Location/Type
11:42AM 30.3781 -97.4194 82° East 238 274 5,000  Level Houston Center
11:42AM 30.3747 -97.3631 94° East 266 306 6,500 1,020 Climbing Houston Center
11:44AM 30.3672 -97.2467 94° East 272 313 7,000 180 Climbing Houston Center
11:45AM 30.3603 -97.1367 94° East 282 325 7,000  Level Houston Center
11:46AM 30.3056 -97.0518 94° East  Level Estimated
11:46AM 30.3542 -97.0414 94° East 291 335 7,000  Level Houston Center
11:47AM 30.3159 -96.9651 82° East  Level FlightAware Approximate
11:47AM 30.3483 -96.9461 94° East 295 339 6,900  Level Houston Center
11:48AM 30.3425 -96.8517 94° East 294 338 7,000  Climbing Houston Center
11:49AM 30.3358 -96.7547 95° East 297 342 7,000  Level Houston Center
11:50AM 30.3278 -96.6394 95° East 298 343 7,100  Climbing Houston Center
11:51AM 30.3342 -96.5394 86° East 302 348 7,100 -120 Level Houston Center
11:52AM 30.3417 -96.4483 85° East 302 348 6,900 -120 Descending Houston Center
11:53AM 30.3489 -96.3511 85° East 302 348 6,900  Level Houston Center
11:54AM 30.3414 -96.2539 95° East 303 349 7,000  Climbing Houston Center
11:55AM 30.3219 -96.1606 104° East 299 344 7,000  Level Houston Center
11:56AM 30.2967 -96.0686 108° East 299 344 7,000  Level Houston Center
11:57AM 30.2636 -95.9769 113° Southeast 299 344 7,100  Climbing Houston Center
11:58AM 30.2528 -95.8742 97° East 307 353 7,100  Level Houston Center
11:59AM 30.2911 -95.7850 64° Northeast 306 352 7,100 -60 Level Houston Center
12:00PM 30.2661 -95.6914 107° East 300 345 7,000 -120 Descending Houston Center
12:01PM 30.2144 -95.6297 134° Southeast 288 331 6,900 -60 Descending Houston Center
12:02PM 30.1675 -95.5747 135° Southeast 231 266 6,900  Level Houston Center
12:03PM 30.1083 -95.5481 159° South 226 260 6,900  Level Houston Center
12:04PM 30.0900 -95.4608 104° East 248 285 7,000  Climbing Houston Center
12:05PM 30.0917 -95.3883 88° East 247 284 7,000 -60 Level Houston Center
12:07PM 30.0925 -95.3036 89° East 249 287 6,900 -540 Descending Houston Center
12:07PM 30.0961 -95.2306 87° East 243 280 6,000 -1,020 Descending Houston Center
12:08PM 30.0978 -95.1556 89° East 237 273 5,000 -1,020 Descending Houston Center
12:09PM 30.0989 -95.0783 89° East 228 262 4,000 -540 Descending Houston Center
12:10PM 30.0867 -95.0144 102° East 214 246 4,000 -240 Level Houston Center
12:12PM 30.0261 -94.9978 167° South 219 252 3,600 -480 Descending Houston Center
12:13PM 29.9931 -95.0478 233° Southwest 208 239 3,000 -420 Descending Houston Center
12:13PM 29.9928 -95.1106 270° West 221 254 2,900 -360 Descending Houston Center
12:14PM 29.9939 -95.1900 271° West 238 274 2,400 -840 Descending Houston Center
12:16PM 29.9944 -95.2647 271° West 169 194 1,200 -960 Descending Houston Center
12:17PM 29.9939 -95.3058 269° West 125 144 500 -780 Descending Houston Center